sensor_id;sensor_type;location;lat;lon;timestamp;P1;durP1;ratioP1;P2;durP2;ratioP2
61393;SDS011;48555;50.952;-0.120;2023-04-01T00:00:52;4.38;;;2.13;;
61393;SDS011;48555;50.952;-0.120;2023-04-01T00:03:18;5.80;;;2.30;;
61393;SDS011;48555;50.952;-0.120;2023-04-01T00:05:44;5.93;;;2.30;;
61393;SDS011;48555;50.952;-0.120;2023-04-01T00:08:10;5.60;;;2.20;;
61393;SDS011;48555;50.952;-0.120;2023-04-01T00:10:36;6.00;;;1.98;;
61393;SDS011;48555;50.952;-0.120;2023-04-01T00:13:01;5.20;;;2.00;;
61393;SDS011;48555;50.952;-0.120;2023-04-01T00:15:27;5.05;;;2.40;;
61393;SDS011;48555;50.952;-0.120;2023-04-01T00:17:52;4.55;;;2.03;;
61393;SDS011;48555;50.952;-0.120;2023-04-01T00:20:17;4.53;;;2.10;;
61393;SDS011;48555;50.952;-0.120;2023-04-01T00:22:43;4.15;;;1.95;;
61393;SDS011;48555;50.952;-0.120;2023-04-01T00:25:08;6.10;;;1.92;;
61393;SDS011;48555;50.952;-0.120;2023-04-01T00:27:34;5.72;;;2.05;;
61393;SDS011;48555;50.952;-0.120;2023-04-01T00:30:00;7.85;;;2.30;;
61393;SDS011;48555;50.952;-0.120;2023-04-01T00:32:26;4.75;;;2.13;;
61393;SDS011;48555;50.952;-0.120;2023-04-01T00:34:51;6.28;;;2.33;;
61393;SDS011;48555;50.952;-0.120;2023-04-01T00:37:18;5.00;;;2.30;;
61393;SDS011;48555;50.952;-0.120;2023-04-01T00:39:44;6.07;;;2.92;;
61393;SDS011;48555;50.952;-0.120;2023-04-01T00:42:10;5.93;;;2.13;;
61393;SDS011;48555;50.952;-0.120;2023-04-01T00:44:38;5.30;;;2.30;;
61393;SDS011;48555;50.952;-0.120;2023-04-01T00:47:03;5.75;;;2.20;;
61393;SDS011;48555;50.952;-0.120;2023-04-01T00:49:30;6.90;;;2.55;;
61393;SDS011;48555;50.952;-0.120;2023-04-01T00:51:59;6.40;;;2.20;;
61393;SDS011;48555;50.952;-0.120;2023-04-01T00:54:27;6.38;;;2.35;;
61393;SDS011;48555;50.952;-0.120;2023-04-01T00:57:06;3.88;;;2.22;;
61393;SDS011;48555;50.952;-0.120;2023-04-01T00:59:34;6.05;;;2.25;;
61393;SDS011;48555;50.952;-0.120;2023-04-01T01:02:04;7.60;;;2.10;;
61393;SDS011;48555;50.952;-0.120;2023-04-01T01:04:32;5.18;;;2.28;;
61393;SDS011;48555;50.952;-0.120;2023-04-01T01:37:55;4.65;;;2.33;;
61393;SDS011;48555;50.952;-0.120;2023-04-01T01:40:24;5.10;;;2.23;;
61393;SDS011;48555;50.952;-0.120;2023-04-01T01:42:54;5.07;;;2.10;;
61393;SDS011;48555;50.952;-0.120;2023-04-01T01:45:23;6.78;;;2.28;;
61393;SDS011;48555;50.952;-0.120;2023-04-01T01:47:51;5.40;;;2.13;;
61393;SDS011;48555;50.952;-0.120;2023-04-01T01:50:17;6.43;;;2.80;;
61393;SDS011;48555;50.952;-0.120;2023-04-01T01:52:44;6.15;;;2.88;;
61393;SDS011;48555;50.952;-0.120;2023-04-01T01:55:23;4.40;;;2.42;;
61393;SDS011;48555;50.952;-0.120;2023-04-01T01:57:52;8.70;;;2.70;;
61393;SDS011;48555;50.952;-0.120;2023-04-01T02:00:18;6.55;;;2.35;;
61393;SDS011;48555;50.952;-0.120;2023-04-01T02:02:46;7.25;;;2.40;;
61393;SDS011;48555;50.952;-0.120;2023-04-01T02:05:17;4.80;;;2.13;;
61393;SDS011;48555;50.952;-0.120;2023-04-01T02:07:51;5.05;;;2.10;;
61393;SDS011;48555;50.952;-0.120;2023-04-01T02:10:22;5.72;;;2.25;;
61393;SDS011;48555;50.952;-0.120;2023-04-01T02:12:51;5.90;;;2.28;;
61393;SDS011;48555;50.952;-0.120;2023-04-01T02:15:21;6.88;;;2.28;;
61393;SDS011;48555;50.952;-0.120;2023-04-01T02:17:48;3.53;;;1.77;;
61393;SDS011;48555;50.952;-0.120;2023-04-01T02:20:17;5.60;;;2.17;;
61393;SDS011;48555;50.952;-0.120;2023-04-01T02:22:53;4.32;;;1.98;;
61393;SDS011;48555;50.952;-0.120;2023-04-01T02:25:22;4.50;;;1.92;;
61393;SDS011;48555;50.952;-0.120;2023-04-01T02:27:51;3.80;;;1.90;;
61393;SDS011;48555;50.952;-0.120;2023-04-01T02:30:17;5.40;;;2.10;;
61393;SDS011;48555;50.952;-0.120;2023-04-01T02:32:43;4.68;;;1.85;;
61393;SDS011;48555;50.952;-0.120;2023-04-01T02:35:12;3.97;;;1.90;;
61393;SDS011;48555;50.952;-0.120;2023-04-01T02:37:40;5.25;;;2.08;;
61393;SDS011;48555;50.952;-0.120;2023-04-01T02:40:07;3.95;;;1.90;;
61393;SDS011;48555;50.952;-0.120;2023-04-01T02:42:35;4.57;;;1.92;;
61393;SDS011;48555;50.952;-0.120;2023-04-01T02:45:01;3.47;;;1.80;;
61393;SDS011;48555;50.952;-0.120;2023-04-01T02:47:26;2.50;;;1.70;;
61393;SDS011;48555;50.952;-0.120;2023-04-01T02:49:52;7.22;;;2.00;;
61393;SDS011;48555;50.952;-0.120;2023-04-01T02:52:23;5.53;;;2.00;;
61393;SDS011;48555;50.952;-0.120;2023-04-01T02:54:49;4.93;;;1.88;;
61393;SDS011;48555;50.952;-0.120;2023-04-01T02:57:14;5.95;;;1.88;;
61393;SDS011;48555;50.952;-0.120;2023-04-01T02:59:40;5.07;;;1.60;;
61393;SDS011;48555;50.952;-0.120;2023-04-01T03:02:05;2.45;;;1.52;;
61393;SDS011;48555;50.952;-0.120;2023-04-01T03:04:31;2.13;;;1.33;;
61393;SDS011;48555;50.952;-0.120;2023-04-01T03:06:57;4.10;;;1.48;;
61393;SDS011;48555;50.952;-0.120;2023-04-01T03:09:22;4.15;;;1.48;;
61393;SDS011;48555;50.952;-0.120;2023-04-01T03:11:47;2.85;;;1.52;;
61393;SDS011;48555;50.952;-0.120;2023-04-01T03:14:13;3.67;;;1.52;;
61393;SDS011;48555;50.952;-0.120;2023-04-01T03:16:38;2.40;;;1.45;;
61393;SDS011;48555;50.952;-0.120;2023-04-01T03:19:03;3.63;;;1.58;;
61393;SDS011;48555;50.952;-0.120;2023-04-01T03:21:29;4.07;;;1.63;;
61393;SDS011;48555;50.952;-0.120;2023-04-01T03:23:54;1.98;;;1.50;;
61393;SDS011;48555;50.952;-0.120;2023-04-01T03:26:20;4.30;;;1.75;;
61393;SDS011;48555;50.952;-0.120;2023-04-01T03:28:47;2.97;;;1.58;;
61393;SDS011;48555;50.952;-0.120;2023-04-01T03:31:12;3.22;;;1.50;;
61393;SDS011;48555;50.952;-0.120;2023-04-01T03:33:38;2.33;;;1.38;;
61393;SDS011;48555;50.952;-0.120;2023-04-01T03:36:04;3.83;;;1.80;;
61393;SDS011;48555;50.952;-0.120;2023-04-01T03:38:32;2.60;;;1.40;;
61393;SDS011;48555;50.952;-0.120;2023-04-01T03:40:58;3.35;;;1.50;;
61393;SDS011;48555;50.952;-0.120;2023-04-01T03:43:23;2.60;;;1.40;;
61393;SDS011;48555;50.952;-0.120;2023-04-01T03:45:50;3.13;;;1.60;;
61393;SDS011;48555;50.952;-0.120;2023-04-01T03:48:16;2.22;;;1.15;;
61393;SDS011;48555;50.952;-0.120;2023-04-01T03:50:42;3.78;;;1.40;;
61393;SDS011;48555;50.952;-0.120;2023-04-01T03:53:08;3.50;;;1.60;;
61393;SDS011;48555;50.952;-0.120;2023-04-01T03:55:35;2.00;;;1.40;;
61393;SDS011;48555;50.952;-0.120;2023-04-01T03:58:01;3.67;;;1.60;;
61393;SDS011;48555;50.952;-0.120;2023-04-01T04:00:28;3.25;;;1.52;;
61393;SDS011;48555;50.952;-0.120;2023-04-01T04:02:54;3.25;;;1.50;;
61393;SDS011;48555;50.952;-0.120;2023-04-01T04:05:21;3.97;;;1.80;;
61393;SDS011;48555;50.952;-0.120;2023-04-01T04:07:47;4.47;;;1.67;;
61393;SDS011;48555;50.952;-0.120;2023-04-01T04:10:12;4.30;;;1.50;;
61393;SDS011;48555;50.952;-0.120;2023-04-01T04:12:38;5.93;;;2.00;;
61393;SDS011;48555;50.952;-0.120;2023-04-01T04:15:03;4.18;;;1.70;;
61393;SDS011;48555;50.952;-0.120;2023-04-01T04:17:29;3.50;;;1.67;;
61393;SDS011;48555;50.952;-0.120;2023-04-01T04:19:54;4.00;;;1.90;;
61393;SDS011;48555;50.952;-0.120;2023-04-01T04:22:20;3.05;;;1.48;;
61393;SDS011;48555;50.952;-0.120;2023-04-01T04:24:45;3.88;;;2.00;;
61393;SDS011;48555;50.952;-0.120;2023-04-01T04:27:10;3.03;;;1.75;;
61393;SDS011;48555;50.952;-0.120;2023-04-01T04:29:36;4.68;;;2.15;;
61393;SDS011;48555;50.952;-0.120;2023-04-01T04:32:01;5.38;;;1.92;;
61393;SDS011;48555;50.952;-0.120;2023-04-01T04:34:26;2.83;;;1.50;;
61393;SDS011;48555;50.952;-0.120;2023-04-01T04:36:52;4.35;;;1.73;;
61393;SDS011;48555;50.952;-0.120;2023-04-01T04:39:17;3.58;;;1.52;;
61393;SDS011;48555;50.952;-0.120;2023-04-01T04:41:42;4.22;;;1.80;;
61393;SDS011;48555;50.952;-0.120;2023-04-01T04:44:08;4.03;;;1.90;;
61393;SDS011;48555;50.952;-0.120;2023-04-01T04:46:33;3.85;;;1.63;;
61393;SDS011;48555;50.952;-0.120;2023-04-01T04:48:59;4.75;;;1.67;;
61393;SDS011;48555;50.952;-0.120;2023-04-01T04:51:24;3.60;;;1.85;;
61393;SDS011;48555;50.952;-0.120;2023-04-01T04:53:50;5.85;;;1.88;;
61393;SDS011;48555;50.952;-0.120;2023-04-01T04:56:22;3.10;;;1.60;;
61393;SDS011;48555;50.952;-0.120;2023-04-01T04:58:48;4.20;;;1.35;;
61393;SDS011;48555;50.952;-0.120;2023-04-01T05:01:15;4.10;;;1.80;;
61393;SDS011;48555;50.952;-0.120;2023-04-01T05:03:41;2.00;;;1.15;;
61393;SDS011;48555;50.952;-0.120;2023-04-01T05:06:07;3.63;;;1.55;;
61393;SDS011;48555;50.952;-0.120;2023-04-01T05:08:34;2.78;;;1.40;;
61393;SDS011;48555;50.952;-0.120;2023-04-01T05:11:00;1.70;;;1.20;;
61393;SDS011;48555;50.952;-0.120;2023-04-01T05:13:26;2.47;;;1.00;;
61393;SDS011;48555;50.952;-0.120;2023-04-01T05:15:51;1.33;;;1.17;;
61393;SDS011;48555;50.952;-0.120;2023-04-01T05:18:17;3.72;;;1.17;;
61393;SDS011;48555;50.952;-0.120;2023-04-01T05:20:49;2.75;;;1.30;;
61393;SDS011;48555;50.952;-0.120;2023-04-01T05:23:16;2.85;;;1.25;;
61393;SDS011;48555;50.952;-0.120;2023-04-01T05:25:42;1.45;;;1.05;;
61393;SDS011;48555;50.952;-0.120;2023-04-01T05:28:08;4.28;;;1.00;;
61393;SDS011;48555;50.952;-0.120;2023-04-01T05:30:33;2.42;;;1.30;;
61393;SDS011;48555;50.952;-0.120;2023-04-01T05:32:59;2.13;;;1.13;;
61393;SDS011;48555;50.952;-0.120;2023-04-01T05:35:24;3.47;;;1.45;;
61393;SDS011;48555;50.952;-0.120;2023-04-01T05:37:50;2.60;;;1.20;;
61393;SDS011;48555;50.952;-0.120;2023-04-01T05:40:16;2.65;;;1.50;;
61393;SDS011;48555;50.952;-0.120;2023-04-01T05:42:41;2.95;;;1.48;;
61393;SDS011;48555;50.952;-0.120;2023-04-01T05:45:07;1.92;;;1.30;;
61393;SDS011;48555;50.952;-0.120;2023-04-01T05:47:33;1.70;;;1.50;;
61393;SDS011;48555;50.952;-0.120;2023-04-01T05:49:59;3.22;;;1.77;;
61393;SDS011;48555;50.952;-0.120;2023-04-01T05:52:24;2.65;;;1.63;;
61393;SDS011;48555;50.952;-0.120;2023-04-01T05:54:50;2.53;;;1.60;;
61393;SDS011;48555;50.952;-0.120;2023-04-01T05:57:16;2.38;;;1.50;;
61393;SDS011;48555;50.952;-0.120;2023-04-01T05:59:41;3.35;;;1.85;;
61393;SDS011;48555;50.952;-0.120;2023-04-01T06:02:07;3.25;;;2.17;;
61393;SDS011;48555;50.952;-0.120;2023-04-01T06:04:37;3.40;;;2.00;;
61393;SDS011;48555;50.952;-0.120;2023-04-01T06:07:13;4.25;;;2.25;;
61393;SDS011;48555;50.952;-0.120;2023-04-01T06:09:40;4.82;;;2.60;;
61393;SDS011;48555;50.952;-0.120;2023-04-01T06:45:42;4.30;;;2.53;;
61393;SDS011;48555;50.952;-0.120;2023-04-01T06:51:15;4.53;;;2.72;;
61393;SDS011;48555;50.952;-0.120;2023-04-01T06:54:18;4.60;;;2.90;;
61393;SDS011;48555;50.952;-0.120;2023-04-01T06:56:51;4.15;;;2.70;;
61393;SDS011;48555;50.952;-0.120;2023-04-01T06:59:25;4.72;;;2.78;;
61393;SDS011;48555;50.952;-0.120;2023-04-01T07:01:53;4.90;;;2.70;;
61393;SDS011;48555;50.952;-0.120;2023-04-01T07:04:27;4.30;;;2.60;;
61393;SDS011;48555;50.952;-0.120;2023-04-01T07:06:57;6.22;;;3.38;;
61393;SDS011;48555;50.952;-0.120;2023-04-01T07:09:26;4.25;;;2.97;;
61393;SDS011;48555;50.952;-0.120;2023-04-01T07:11:59;4.80;;;2.63;;
61393;SDS011;48555;50.952;-0.120;2023-04-01T07:14:37;3.75;;;2.60;;
61393;SDS011;48555;50.952;-0.120;2023-04-01T07:19:44;4.05;;;2.70;;
61393;SDS011;48555;50.952;-0.120;2023-04-01T07:22:45;3.65;;;2.40;;
61393;SDS011;48555;50.952;-0.120;2023-04-01T07:25:14;3.90;;;2.50;;
61393;SDS011;48555;50.952;-0.120;2023-04-01T07:27:42;5.13;;;2.70;;
61393;SDS011;48555;50.952;-0.120;2023-04-01T07:30:14;3.67;;;2.40;;
61393;SDS011;48555;50.952;-0.120;2023-04-01T07:35:46;3.90;;;2.63;;
61393;SDS011;48555;50.952;-0.120;2023-04-01T07:38:59;4.35;;;2.50;;
61393;SDS011;48555;50.952;-0.120;2023-04-01T08:03:48;4.32;;;2.20;;
61393;SDS011;48555;50.952;-0.120;2023-04-01T08:06:30;3.42;;;2.08;;
61393;SDS011;48555;50.952;-0.120;2023-04-01T08:09:14;3.75;;;2.25;;
61393;SDS011;48555;50.952;-0.120;2023-04-01T08:19:56;3.67;;;2.40;;
61393;SDS011;48555;50.952;-0.120;2023-04-01T08:22:57;5.18;;;2.63;;
61393;SDS011;48555;50.952;-0.120;2023-04-01T08:25:24;8.02;;;2.42;;
61393;SDS011;48555;50.952;-0.120;2023-04-01T08:30:46;3.28;;;2.30;;
61393;SDS011;48555;50.952;-0.120;2023-04-01T08:35:46;2.80;;;2.05;;
61393;SDS011;48555;50.952;-0.120;2023-04-01T08:38:23;3.28;;;2.13;;
61393;SDS011;48555;50.952;-0.120;2023-04-01T08:49:42;4.57;;;2.75;;
61393;SDS011;48555;50.952;-0.120;2023-04-01T09:05:58;4.68;;;2.78;;
61393;SDS011;48555;50.952;-0.120;2023-04-01T09:09:02;4.10;;;2.25;;
61393;SDS011;48555;50.952;-0.120;2023-04-01T09:17:34;3.90;;;2.03;;
61393;SDS011;48555;50.952;-0.120;2023-04-01T09:20:06;3.72;;;2.45;;
61393;SDS011;48555;50.952;-0.120;2023-04-01T09:28:20;3.97;;;2.25;;
61393;SDS011;48555;50.952;-0.120;2023-04-01T09:41:57;3.90;;;2.60;;
61393;SDS011;48555;50.952;-0.120;2023-04-01T09:44:51;4.00;;;2.58;;
61393;SDS011;48555;50.952;-0.120;2023-04-01T09:52:38;5.03;;;2.90;;
61393;SDS011;48555;50.952;-0.120;2023-04-01T09:56:17;4.82;;;2.58;;
61393;SDS011;48555;50.952;-0.120;2023-04-01T10:19:49;5.82;;;3.83;;
61393;SDS011;48555;50.952;-0.120;2023-04-01T10:25:31;7.63;;;3.88;;
61393;SDS011;48555;50.952;-0.120;2023-04-01T10:33:56;5.15;;;3.65;;
61393;SDS011;48555;50.952;-0.120;2023-04-01T10:39:47;9.27;;;5.15;;
61393;SDS011;48555;50.952;-0.120;2023-04-01T10:50:24;5.10;;;3.22;;
61393;SDS011;48555;50.952;-0.120;2023-04-01T10:55:37;4.93;;;3.08;;
61393;SDS011;48555;50.952;-0.120;2023-04-01T11:02:03;4.13;;;2.70;;
61393;SDS011;48555;50.952;-0.120;2023-04-01T11:07:22;4.28;;;2.50;;
61393;SDS011;48555;50.952;-0.120;2023-04-01T11:15:46;4.55;;;3.22;;
61393;SDS011;48555;50.952;-0.120;2023-04-01T11:26:59;6.53;;;2.97;;
61393;SDS011;48555;50.952;-0.120;2023-04-01T11:29:49;5.32;;;2.65;;
61393;SDS011;48555;50.952;-0.120;2023-04-01T11:40:46;5.90;;;3.97;;
61393;SDS011;48555;50.952;-0.120;2023-04-01T11:43:43;5.47;;;3.55;;
61393;SDS011;48555;50.952;-0.120;2023-04-01T11:46:12;5.80;;;3.72;;
61393;SDS011;48555;50.952;-0.120;2023-04-01T11:52:04;6.82;;;3.10;;
61393;SDS011;48555;50.952;-0.120;2023-04-01T12:05:58;4.65;;;2.63;;
61393;SDS011;48555;50.952;-0.120;2023-04-01T12:13:59;4.32;;;2.63;;
61393;SDS011;48555;50.952;-0.120;2023-04-01T12:19:51;5.35;;;3.00;;
61393;SDS011;48555;50.952;-0.120;2023-04-01T12:30:14;6.63;;;3.75;;
61393;SDS011;48555;50.952;-0.120;2023-04-01T12:33:22;6.18;;;3.60;;
61393;SDS011;48555;50.952;-0.120;2023-04-01T12:44:03;7.60;;;3.60;;
61393;SDS011;48555;50.952;-0.120;2023-04-01T12:49:25;5.30;;;3.72;;
61393;SDS011;48555;50.952;-0.120;2023-04-01T12:57:29;4.95;;;3.35;;
61393;SDS011;48555;50.952;-0.120;2023-04-01T13:03:17;6.30;;;3.20;;
61393;SDS011;48555;50.952;-0.120;2023-04-01T13:08:45;5.35;;;2.50;;
61393;SDS011;48555;50.952;-0.120;2023-04-01T13:11:25;3.95;;;2.60;;
61393;SDS011;48555;50.952;-0.120;2023-04-01T13:14:08;5.00;;;2.58;;
61393;SDS011;48555;50.952;-0.120;2023-04-01T13:16:41;5.03;;;2.83;;
61393;SDS011;48555;50.952;-0.120;2023-04-01T13:22:27;5.47;;;2.95;;
61393;SDS011;48555;50.952;-0.120;2023-04-01T13:25:46;6.53;;;2.58;;
61393;SDS011;48555;50.952;-0.120;2023-04-01T13:28:00;3.70;;;2.50;;
61393;SDS011;48555;50.952;-0.120;2023-04-01T13:30:39;5.28;;;2.95;;
61393;SDS011;48555;50.952;-0.120;2023-04-01T13:38:52;4.63;;;2.50;;
61393;SDS011;48555;50.952;-0.120;2023-04-01T13:44:48;6.32;;;2.70;;
61393;SDS011;48555;50.952;-0.120;2023-04-01T13:50:05;4.57;;;2.30;;
61393;SDS011;48555;50.952;-0.120;2023-04-01T13:55:26;5.40;;;2.92;;
61393;SDS011;48555;50.952;-0.120;2023-04-01T14:00:54;5.93;;;3.78;;
61393;SDS011;48555;50.952;-0.120;2023-04-01T14:14:21;4.72;;;2.30;;
61393;SDS011;48555;50.952;-0.120;2023-04-01T14:17:02;3.90;;;2.50;;
61393;SDS011;48555;50.952;-0.120;2023-04-01T14:30:01;5.03;;;2.40;;
61393;SDS011;48555;50.952;-0.120;2023-04-01T14:46:48;3.83;;;1.90;;
61393;SDS011;48555;50.952;-0.120;2023-04-01T14:51:55;5.10;;;1.98;;
61393;SDS011;48555;50.952;-0.120;2023-04-01T14:54:31;4.25;;;2.03;;
61393;SDS011;48555;50.952;-0.120;2023-04-01T15:00:00;5.70;;;2.15;;
61393;SDS011;48555;50.952;-0.120;2023-04-01T15:13:12;6.65;;;2.53;;
61393;SDS011;48555;50.952;-0.120;2023-04-01T15:15:47;4.60;;;2.38;;
61393;SDS011;48555;50.952;-0.120;2023-04-01T15:23:51;6.32;;;2.42;;
61393;SDS011;48555;50.952;-0.120;2023-04-01T15:42:14;4.85;;;2.60;;
61393;SDS011;48555;50.952;-0.120;2023-04-01T15:45:00;6.95;;;2.65;;
61393;SDS011;48555;50.952;-0.120;2023-04-01T15:47:33;5.68;;;2.70;;
61393;SDS011;48555;50.952;-0.120;2023-04-01T15:52:56;6.05;;;2.90;;
61393;SDS011;48555;50.952;-0.120;2023-04-01T15:55:27;5.75;;;2.70;;
61393;SDS011;48555;50.952;-0.120;2023-04-01T16:06:48;4.45;;;2.50;;
61393;SDS011;48555;50.952;-0.120;2023-04-01T16:12:49;5.55;;;2.60;;
61393;SDS011;48555;50.952;-0.120;2023-04-01T16:15:39;5.82;;;2.58;;
61393;SDS011;48555;50.952;-0.120;2023-04-01T16:21:08;5.15;;;2.88;;
61393;SDS011;48555;50.952;-0.120;2023-04-01T16:23:49;6.38;;;3.47;;
61393;SDS011;48555;50.952;-0.120;2023-04-01T16:26:22;5.82;;;3.00;;
61393;SDS011;48555;50.952;-0.120;2023-04-01T16:31:47;4.65;;;2.80;;
61393;SDS011;48555;50.952;-0.120;2023-04-01T16:34:38;4.93;;;2.88;;
61393;SDS011;48555;50.952;-0.120;2023-04-01T16:45:38;6.22;;;3.20;;
61393;SDS011;48555;50.952;-0.120;2023-04-01T16:55:48;5.65;;;2.35;;
61393;SDS011;48555;50.952;-0.120;2023-04-01T16:58:27;5.55;;;2.60;;
61393;SDS011;48555;50.952;-0.120;2023-04-01T17:01:06;6.32;;;2.63;;
61393;SDS011;48555;50.952;-0.120;2023-04-01T17:03:44;5.50;;;2.72;;
61393;SDS011;48555;50.952;-0.120;2023-04-01T17:06:25;3.80;;;1.95;;
61393;SDS011;48555;50.952;-0.120;2023-04-01T17:11:37;5.97;;;2.50;;
61393;SDS011;48555;50.952;-0.120;2023-04-01T17:19:31;5.55;;;2.30;;
61393;SDS011;48555;50.952;-0.120;2023-04-01T17:24:49;5.32;;;2.53;;
61393;SDS011;48555;50.952;-0.120;2023-04-01T17:35:40;4.70;;;2.50;;
61393;SDS011;48555;50.952;-0.120;2023-04-01T17:38:18;5.95;;;2.40;;
61393;SDS011;48555;50.952;-0.120;2023-04-01T17:47:13;5.47;;;2.33;;
61393;SDS011;48555;50.952;-0.120;2023-04-01T18:06:31;5.07;;;2.30;;
61393;SDS011;48555;50.952;-0.120;2023-04-01T18:14:34;4.82;;;2.47;;
61393;SDS011;48555;50.952;-0.120;2023-04-01T18:19:53;4.53;;;2.35;;
61393;SDS011;48555;50.952;-0.120;2023-04-01T18:22:46;5.35;;;2.70;;
61393;SDS011;48555;50.952;-0.120;2023-04-01T18:25:22;4.65;;;2.40;;
61393;SDS011;48555;50.952;-0.120;2023-04-01T18:28:13;26.85;;;13.70;;
61393;SDS011;48555;50.952;-0.120;2023-04-01T18:30:43;16.85;;;9.90;;
61393;SDS011;48555;50.952;-0.120;2023-04-01T18:33:21;6.47;;;3.67;;
61393;SDS011;48555;50.952;-0.120;2023-04-01T18:35:58;5.72;;;3.40;;
61393;SDS011;48555;50.952;-0.120;2023-04-01T18:42:16;9.10;;;5.10;;
61393;SDS011;48555;50.952;-0.120;2023-04-01T18:45:09;5.75;;;3.10;;
61393;SDS011;48555;50.952;-0.120;2023-04-01T18:52:46;6.85;;;3.60;;
61393;SDS011;48555;50.952;-0.120;2023-04-01T18:57:49;5.80;;;2.97;;
61393;SDS011;48555;50.952;-0.120;2023-04-01T19:00:40;9.23;;;3.38;;
61393;SDS011;48555;50.952;-0.120;2023-04-01T19:05:48;4.63;;;2.55;;
61393;SDS011;48555;50.952;-0.120;2023-04-01T19:08:18;4.25;;;2.45;;
61393;SDS011;48555;50.952;-0.120;2023-04-01T19:24:24;5.80;;;2.70;;
61393;SDS011;48555;50.952;-0.120;2023-04-01T19:27:18;5.55;;;2.88;;
61393;SDS011;48555;50.952;-0.120;2023-04-01T19:38:37;4.47;;;2.42;;
61393;SDS011;48555;50.952;-0.120;2023-04-01T19:44:04;4.70;;;2.58;;
61393;SDS011;48555;50.952;-0.120;2023-04-01T19:49:20;5.90;;;2.78;;
61393;SDS011;48555;50.952;-0.120;2023-04-01T19:51:59;5.32;;;2.70;;
61393;SDS011;48555;50.952;-0.120;2023-04-01T19:57:12;4.85;;;2.50;;
61393;SDS011;48555;50.952;-0.120;2023-04-01T19:59:56;5.13;;;2.47;;
61393;SDS011;48555;50.952;-0.120;2023-04-01T20:02:39;5.90;;;2.67;;
61393;SDS011;48555;50.952;-0.120;2023-04-01T20:05:33;5.03;;;2.70;;
61393;SDS011;48555;50.952;-0.120;2023-04-01T20:08:02;4.25;;;2.65;;
61393;SDS011;48555;50.952;-0.120;2023-04-01T20:13:35;4.15;;;2.40;;
61393;SDS011;48555;50.952;-0.120;2023-04-01T20:16:18;5.68;;;2.70;;
61393;SDS011;48555;50.952;-0.120;2023-04-01T20:26:41;5.53;;;2.60;;
61393;SDS011;48555;50.952;-0.120;2023-04-01T20:29:35;5.38;;;2.40;;
61393;SDS011;48555;50.952;-0.120;2023-04-01T20:40:44;5.10;;;2.95;;
61393;SDS011;48555;50.952;-0.120;2023-04-01T20:43:19;4.43;;;3.00;;
61393;SDS011;48555;50.952;-0.120;2023-04-01T20:46:18;6.72;;;2.80;;
61393;SDS011;48555;50.952;-0.120;2023-04-01T20:48:48;4.47;;;2.70;;
61393;SDS011;48555;50.952;-0.120;2023-04-01T20:51:21;4.40;;;2.67;;
61393;SDS011;48555;50.952;-0.120;2023-04-01T20:53:57;6.90;;;3.13;;
61393;SDS011;48555;50.952;-0.120;2023-04-01T21:05:37;5.13;;;2.72;;
61393;SDS011;48555;50.952;-0.120;2023-04-01T21:08:12;5.53;;;3.22;;
61393;SDS011;48555;50.952;-0.120;2023-04-01T21:19:46;4.90;;;2.35;;
61393;SDS011;48555;50.952;-0.120;2023-04-01T21:25:21;4.75;;;2.38;;
61393;SDS011;48555;50.952;-0.120;2023-04-01T21:41:53;4.30;;;2.08;;
61393;SDS011;48555;50.952;-0.120;2023-04-01T21:44:41;4.15;;;2.50;;
61393;SDS011;48555;50.952;-0.120;2023-04-01T21:47:14;3.75;;;2.15;;
61393;SDS011;48555;50.952;-0.120;2023-04-01T21:50:09;4.70;;;2.70;;
61393;SDS011;48555;50.952;-0.120;2023-04-01T22:18:06;2.72;;;1.50;;
61393;SDS011;48555;50.952;-0.120;2023-04-01T22:25:57;3.58;;;1.60;;
61393;SDS011;48555;50.952;-0.120;2023-04-01T22:28:38;4.53;;;1.60;;
61393;SDS011;48555;50.952;-0.120;2023-04-01T22:31:12;3.58;;;1.80;;
61393;SDS011;48555;50.952;-0.120;2023-04-01T22:36:42;2.70;;;1.40;;
61393;SDS011;48555;50.952;-0.120;2023-04-01T22:50:30;5.28;;;1.42;;
61393;SDS011;48555;50.952;-0.120;2023-04-01T22:55:51;3.22;;;1.27;;
61393;SDS011;48555;50.952;-0.120;2023-04-01T22:58:26;2.40;;;1.30;;
61393;SDS011;48555;50.952;-0.120;2023-04-01T23:01:05;1.65;;;1.00;;
61393;SDS011;48555;50.952;-0.120;2023-04-01T23:03:37;3.13;;;1.58;;
61393;SDS011;48555;50.952;-0.120;2023-04-01T23:06:06;2.70;;;1.50;;
61393;SDS011;48555;50.952;-0.120;2023-04-01T23:13:44;3.65;;;1.58;;
61393;SDS011;48555;50.952;-0.120;2023-04-01T23:16:17;2.70;;;1.38;;
61393;SDS011;48555;50.952;-0.120;2023-04-01T23:18:58;2.38;;;1.23;;
61393;SDS011;48555;50.952;-0.120;2023-04-01T23:21:32;3.70;;;1.50;;
61393;SDS011;48555;50.952;-0.120;2023-04-01T23:29:16;3.30;;;1.20;;
61393;SDS011;48555;50.952;-0.120;2023-04-01T23:31:44;2.78;;;1.35;;
61393;SDS011;48555;50.952;-0.120;2023-04-01T23:36:50;3.13;;;1.23;;
61393;SDS011;48555;50.952;-0.120;2023-04-01T23:41:53;1.80;;;1.02;;
61393;SDS011;48555;50.952;-0.120;2023-04-01T23:44:21;1.70;;;1.20;;
61393;SDS011;48555;50.952;-0.120;2023-04-01T23:46:49;2.25;;;1.10;;
61393;SDS011;48555;50.952;-0.120;2023-04-01T23:49:24;4.30;;;1.40;;
61393;SDS011;48555;50.952;-0.120;2023-04-01T23:51:59;3.03;;;1.20;;
61393;SDS011;48555;50.952;-0.120;2023-04-01T23:57:12;3.15;;;1.30;;
61393;SDS011;48555;50.952;-0.120;2023-04-01T23:59:40;3.35;;;1.52;;
